This is the latest recevied weather packets stored in our database for station/object N0NB. If no packets are shown the sender has not sent any weather packets the latest 10 day(s).
| Time | Temp. | Humidity | Pressure | Rain* | Wind** | Luminosity | Snow |
|---|---|---|---|---|---|---|---|
| 1777897816 | 11.67° C | 79% | 1001.3 hPa | 0 mm | - | 81 W/m² | - |
| 1777897216 | 9.44° C | 82% | 1001 hPa | 0 mm | - | 61 W/m² | - |
| 1777896616 | 8.33° C | 83% | 1000.7 hPa | 0 mm | - | 46 W/m² | - |
| 1777896015 | 7.78° C | 82% | 1000.9 hPa | 0 mm | - | 29 W/m² | - |
| 1777895415 | 7.22° C | 81% | 1000.8 hPa | 0 mm | - | 17 W/m² | - |
| 1777894816 | 7.22° C | 80% | 1000.8 hPa | 0 mm | - | 11 W/m² | - |
| 1777894216 | 7.22° C | 79% | 1000.8 hPa | 0 mm | - | 6 W/m² | - |
| 1777893616 | 7.78° C | 78% | 1000.8 hPa | 0 mm | - | 0 W/m² | - |
| 1777893016 | 7.78° C | 77% | 1000.9 hPa | 0 mm | - | 0 W/m² | - |
| 1777892416 | 7.78° C | 78% | 1000.9 hPa | 0 mm | - | 0 W/m² | - |
| 1777891815 | 7.78° C | 77% | 1001 hPa | 0 mm | - | 0 W/m² | - |
| 1777891215 | 8.33° C | 76% | 1001 hPa | 0 mm | - | 0 W/m² | - |
| 1777890616 | 8.89° C | 75% | 1000.9 hPa | 0 mm | - | 0 W/m² | - |
| 1777890015 | 8.89° C | 75% | 1001 hPa | 0 mm | - | 0 W/m² | - |
| 1777889415 | 8.89° C | 74% | 1001.1 hPa | 0 mm | - | 0 W/m² | - |
| 1777888815 | 8.89° C | 73% | 1001.5 hPa | 0 mm | - | 0 W/m² | - |
| 1777888215 | 8.89° C | 73% | 1001.4 hPa | 0 mm | - | 0 W/m² | - |
| 1777887615 | 8.89° C | 73% | 1001.6 hPa | 0 mm | - | 0 W/m² | - |
| 1777887015 | 8.89° C | 72% | 1001.9 hPa | 0 mm | - | 0 W/m² | - |
| 1777886415 | 9.44° C | 70% | 1001.8 hPa | 0 mm | - | 0 W/m² | - |
| 1777885817 | 10° C | 68% | 1001.8 hPa | 0 mm | - | 0 W/m² | - |
| 1777885217 | 10° C | 67% | 1001.8 hPa | 0 mm | - | 0 W/m² | - |
| 1777884617 | 10.56° C | 68% | 1002 hPa | 0 mm | - | 0 W/m² | - |
| 1777884017 | 10.56° C | 67% | 1002.3 hPa | 0 mm | - | 0 W/m² | - |
| 1777883417 | 10.56° C | 68% | 1002.6 hPa | 0 mm | - | 0 W/m² | - |
* Rain latest hour (hover to see other rain measurements)
** Current wind speed in m/s (hover to see current wind gust speed)